createdAt,value
2018-12-23T00:01:39.931Z,94512.27
2018-12-23T00:04:07.499Z,94516.30
2018-12-23T00:06:35.046Z,94523.05
2018-12-23T00:09:04.253Z,94519.81
2018-12-23T00:11:31.793Z,94513.91
2018-12-23T00:14:00.345Z,94519.82
2018-12-23T00:16:27.882Z,94527.98
2018-12-23T00:18:55.466Z,94522.41
2018-12-23T00:21:23.035Z,94523.23
2018-12-23T00:23:50.862Z,94521.45
2018-12-23T00:26:18.404Z,94531.83
2018-12-23T00:28:45.926Z,94536.77
2018-12-23T00:31:13.482Z,94534.52
2018-12-23T00:33:41.036Z,94534.23
2018-12-23T00:36:08.568Z,94542.55
2018-12-23T00:38:36.120Z,94543.84
2018-12-23T00:41:03.696Z,94544.31
2018-12-23T00:43:31.266Z,94542.39
2018-12-23T00:45:58.795Z,94544.81
2018-12-23T00:48:26.611Z,94548.91
2018-12-23T00:50:54.120Z,94543.34
2018-12-23T00:53:21.661Z,94548.91
2018-12-23T00:55:49.191Z,94555.72
2018-12-23T00:58:16.845Z,94551.34
2018-12-23T01:00:44.552Z,94550.23
2018-12-23T01:03:12.110Z,94552.16
2018-12-23T01:05:39.646Z,94556.38
2018-12-23T01:08:07.228Z,94552.42
2018-12-23T01:10:35.013Z,94560.57
2018-12-23T01:13:02.569Z,94562.47
2018-12-23T01:15:30.141Z,94560.48
2018-12-23T01:17:57.733Z,94572.19
2018-12-23T01:20:25.259Z,94569.25
2018-12-23T01:22:52.801Z,94577.28
2018-12-23T01:25:20.353Z,94576.47
2018-12-23T01:27:47.886Z,94580.16
2018-12-23T01:30:15.441Z,94592.03
2018-12-23T01:32:42.973Z,94582.89
2018-12-23T01:35:10.580Z,94583.53
2018-12-23T01:37:38.102Z,94584.95
2018-12-23T01:40:06.268Z,94587.20
2018-12-23T01:42:33.821Z,94584.09
2018-12-23T01:45:02.069Z,94577.31
2018-12-23T01:47:29.603Z,94584.77
2018-12-23T01:49:57.141Z,94586.35
2018-12-23T01:52:24.677Z,94587.69
2018-12-23T01:54:53.645Z,94577.23
2018-12-23T01:57:21.386Z,94577.23
2018-12-23T01:59:48.922Z,94569.75
2018-12-23T02:02:16.485Z,94572.70
2018-12-23T02:04:43.990Z,94566.83
2018-12-23T02:07:11.537Z,94568.83
2018-12-23T02:09:39.140Z,94568.83
2018-12-23T02:12:06.665Z,94566.20
2018-12-23T02:14:34.187Z,94555.85
2018-12-23T02:17:02.057Z,94558.75
2018-12-23T02:19:29.592Z,94562.03
2018-12-23T02:21:57.135Z,94565.63
2018-12-23T02:24:24.785Z,94576.39
2018-12-23T02:26:52.327Z,94579.31
2018-12-23T02:29:19.890Z,94574.50
2018-12-23T02:31:47.425Z,94574.50
2018-12-23T02:34:14.953Z,94579.67
2018-12-23T02:36:42.504Z,94578.90
2018-12-23T02:39:10.030Z,94579.36
2018-12-23T02:41:37.581Z,94577.72
2018-12-23T02:44:05.097Z,94578.71
2018-12-23T02:46:32.701Z,94573.78
2018-12-23T02:49:00.265Z,94559.06
2018-12-23T02:51:27.781Z,94559.42
2018-12-23T02:53:55.334Z,94567.36
2018-12-23T02:56:22.855Z,94567.17
2018-12-23T02:58:50.432Z,94556.72
2018-12-23T03:01:17.985Z,94555.42
2018-12-23T03:03:45.508Z,94545.59
2018-12-23T03:06:13.654Z,94540.45
2018-12-23T03:08:41.217Z,94540.41
2018-12-23T03:11:08.812Z,94540.06
2018-12-23T03:13:36.427Z,94542.05
2018-12-23T03:16:04.054Z,94547.09
2018-12-23T03:18:31.571Z,94548.20
2018-12-23T03:20:59.247Z,94544.91
2018-12-23T03:23:26.789Z,94548.88
2018-12-23T03:25:54.335Z,94543.95
2018-12-23T03:28:21.871Z,94559.30
2018-12-23T03:30:49.441Z,94557.88
2018-12-23T03:33:16.981Z,94553.48
2018-12-23T03:35:44.482Z,94551.60
2018-12-23T03:38:12.169Z,94558.75
2018-12-23T03:40:39.712Z,94571.13
2018-12-23T03:43:07.462Z,94571.13
2018-12-23T03:45:34.999Z,94576.83
2018-12-23T03:48:02.530Z,94575.20
2018-12-23T03:50:30.046Z,94576.03
2018-12-23T03:52:57.593Z,94566.92
2018-12-23T03:55:25.112Z,94560.41
2018-12-23T03:57:52.823Z,94548.05
2018-12-23T04:00:20.331Z,94542.77
2018-12-23T04:02:47.880Z,94537.89
2018-12-23T04:05:15.435Z,94556.14
2018-12-23T04:07:42.976Z,94560.02
2018-12-23T04:10:10.505Z,94551.24
2018-12-23T04:12:38.059Z,94552.20
2018-12-23T04:15:05.727Z,94565.75
2018-12-23T04:17:33.268Z,94563.96
2018-12-23T04:20:01.098Z,94558.38
2018-12-23T04:22:29.025Z,94563.38
2018-12-23T04:24:56.525Z,94557.06
2018-12-23T04:27:24.062Z,94562.05
2018-12-23T04:29:51.586Z,94575.59
2018-12-23T04:32:19.095Z,94570.43
2018-12-23T04:34:46.937Z,94564.20
2018-12-23T04:37:14.468Z,94573.06
2018-12-23T04:39:41.975Z,94571.16
2018-12-23T04:42:09.806Z,94572.80
2018-12-23T04:44:37.359Z,94575.77
2018-12-23T04:47:05.000Z,94570.81
2018-12-23T04:49:32.921Z,94570.67
2018-12-23T04:52:00.765Z,94566.28
2018-12-23T04:54:28.350Z,94570.14
2018-12-23T04:56:55.874Z,94573.10
2018-12-23T04:59:23.449Z,94573.64
2018-12-23T05:01:51.035Z,94567.75
2018-12-23T05:04:18.555Z,94565.80
2018-12-23T05:06:46.098Z,94570.50
2018-12-23T05:09:13.660Z,94563.59
2018-12-23T05:11:41.240Z,94553.89
2018-12-23T05:14:08.749Z,94557.17
2018-12-23T05:16:36.282Z,94568.52
2018-12-23T05:19:03.788Z,94568.67
2018-12-23T05:21:31.337Z,94548.34
2018-12-23T05:23:58.850Z,94552.06
2018-12-23T05:26:26.397Z,94559.59
2018-12-23T05:28:53.914Z,94559.22
2018-12-23T05:31:21.462Z,94558.54
2018-12-23T05:33:49.385Z,94563.75
2018-12-23T05:36:16.906Z,94560.16
2018-12-23T05:38:44.504Z,94568.38
2018-12-23T05:41:12.033Z,94568.23
2018-12-23T05:43:39.589Z,94556.76
2018-12-23T05:46:07.386Z,94560.73
2018-12-23T05:48:35.209Z,94553.88
2018-12-23T05:51:02.768Z,94547.70
2018-12-23T05:53:30.339Z,94547.50
2018-12-23T05:55:57.314Z,94554.23
2018-12-23T05:58:24.810Z,94558.48
2018-12-23T06:00:52.366Z,94562.42
2018-12-23T06:03:19.899Z,94572.56
2018-12-23T06:06:34.595Z,94572.56
2018-12-23T06:09:21.691Z,94570.55
2018-12-23T06:12:08.853Z,94572.14
2018-12-23T06:14:55.864Z,94575.08
2018-12-23T06:17:43.004Z,94559.14
2018-12-23T06:20:30.111Z,94565.34
2018-12-23T06:26:10.719Z,94556.48
2018-12-23T06:28:57.783Z,94563.61
2018-12-23T06:31:44.802Z,94578.97
2018-12-23T06:34:31.935Z,94583.95
2018-12-23T06:37:19.123Z,94576.86
2018-12-23T06:42:59.515Z,94580.73
2018-12-23T07:21:20.800Z,94593.62
2018-12-23T13:57:43.517Z,94093.75
2018-12-23T14:00:30.560Z,94090.45
2018-12-23T14:06:10.967Z,94079.03
2018-12-23T14:08:59.072Z,94077.08
2018-12-23T14:11:46.244Z,94070.89
2018-12-23T14:14:33.505Z,94069.25
2018-12-23T14:17:20.646Z,94062.08
2018-12-23T14:20:07.750Z,94044.45
2018-12-23T14:22:54.885Z,94043.47
2018-12-23T14:28:35.244Z,94033.33
2018-12-23T14:31:22.618Z,94025.14
2018-12-23T14:34:09.682Z,94011.79
2018-12-23T14:36:56.739Z,94010.66
2018-12-23T14:39:43.801Z,94021.91
2018-12-23T18:08:06.915Z,93946.06
2018-12-23T19:58:10.704Z,93947.41
2018-12-23T20:00:57.938Z,93935.30
2018-12-23T20:06:38.322Z,93934.95
2018-12-23T20:09:25.488Z,93935.30
2018-12-23T20:12:12.582Z,93942.81
2018-12-23T20:14:59.727Z,93938.88
2018-12-23T20:17:46.800Z,93945.69
2018-12-23T20:20:33.961Z,93944.70
2018-12-23T20:23:21.296Z,93947.02
2018-12-23T20:26:08.444Z,93949.94
2018-12-23T20:31:48.836Z,93942.66
2018-12-23T20:34:35.893Z,93940.70
2018-12-23T20:37:22.955Z,93936.11
2018-12-23T20:40:10.045Z,93940.70
2018-12-23T20:57:59.823Z,93934.80
2018-12-23T21:00:46.931Z,93939.08
2018-12-23T21:03:34.015Z,93934.80
2018-12-23T21:06:21.078Z,93929.17
2018-12-23T21:09:08.451Z,93930.87
2018-12-23T21:11:55.581Z,93928.04
2018-12-23T21:14:42.727Z,93927.77
2018-12-23T21:17:29.767Z,93923.52
2018-12-23T21:20:16.875Z,93920.44
2018-12-23T21:23:04.076Z,93920.83
